Tiempo atmosférico en la estación meteorológica de Las Palmas de Gran Canaria, San Cristobal, Las Palmas (55 m.)



Fecha
DESCASC
Temp. máxima en grados centígrados (hora)
DESCASC
Temp. mínima en grados centígrados (hora)
DESCASC
Temp. media en grados centígrados
DESCASC
Racha de viento máxima en m/sg (hora)
DESCASC
Velocidad máxima media en intervalos de 10 minutos(hora)
DESCASC
Precipitaciones diarias en mm
DESCASC
Precipitaciones de 00:00 a 06:00 en mm
DESCASC
Precipitaciones de 06:00 a 12:00 en mm
DESCASC
Precipitaciones de 12:00 a 18:00 en mm
DESCASC
Precipitaciones de 18:00 a 24:00 en mm
DESCASC
24-09-2020 26.8 (17:30) 21.9 (07:10) 24.3 8.61 (04:30) 4.44 (13:30) 1.2 0.2 1 0 0
23-09-2020 27.5 (22:40) 22.3 (00:00) 24.9 16.11 (16:20) 9.17 (16:10) 0 0 0 0 0
22-09-2020 28.7 (17:20) 21.8 (00:00) 25.3 12.5 (19:40) 8.89 (18:40) 0 0 0 0 0
21-09-2020 26.4 (14:20) 22 (00:00) 24.2 10.28 (16:10) 7.22 (15:40) 0 0 0 0 0
20-09-2020 27.8 (15:00) 21.7 (00:00) 24.8 8.89 (23:40) 5.83 (21:40) 0 0 0 0 0
19-09-2020 26.8 (11:30) 21.9 (00:00) 24.3 7.22 (12:00) 4.44 (19:00) 0 0 0 0 0
18-09-2020 27.1 (17:10) 22.2 (00:00) 24.7 13.61 (04:00) 8.06 (02:00) 0 0 0 0 0
17-09-2020 26.1 (15:30) 22.6 (00:00) 24.4 14.44 (20:10) 9.72 (20:10) 0 0 0 0 0
16-09-2020 36.3 (15:20) 22.4 (00:00) 29.3 9.72 (01:00) 6.11 (06:10) 0 0 0 0 0
15-09-2020 25.9 (13:00) 22.5 (00:00) 24.2 11.11 (20:40) 7.5 (11:40) 0 0 0 0 0
14-09-2020 27.2 (15:50) 21.7 (00:00) 24.5 6.67 (18:00) 4.72 (17:30) 0 0 0 0 0
13-09-2020 26.8 (13:10) 22.1 (00:00) 24.4 6.67 (18:10) 4.72 (18:30) 0 0 0 0 0
12-09-2020 27.2 (16:50) 22.2 (00:00) 24.7 9.44 (02:10) 6.11 (01:40) 0 0 0 0 0
11-09-2020 25.7 (15:50) 22.3 (00:00) 24 11.11 (07:00) 7.5 (13:30) 0 0 0 0 0
10-09-2020 26.1 (13:00) 22.3 (00:00) 24.2 13.06 (22:00) 7.78 (07:00) 0 0 0 0 0
09-09-2020 30.4 (11:30) 23.5 (00:00) 26.9 13.61 (02:10) 8.33 (02:20) 0 0 0 0 0
08-09-2020 33 (10:50) 24.8 (00:00) 28.9 10.83 (17:00) 6.67 (20:50) 0 0 0 0 0
07-09-2020 30.3 (22:30) 22.3 (03:50) 26.3 10.56 (03:50) 7.22 (03:50) 0 0 0 0 0
06-09-2020 25.8 (14:00) 21.7 (00:00) 23.8 8.89 (11:20) 5.56 (07:20) 0 0 0 0 0
05-09-2020 27 (12:30) 22.1 (00:00) 24.6 14.17 (15:50) 8.61 (16:10) 0 0 0 0 0
04-09-2020 26.1 (13:30) 21.6 (00:00) 23.9 9.72 (23:50) 5.83 (21:40) 0 0 0 0 0
03-09-2020 27 (13:00) 21.4 (00:00) 24.2 7.5 (18:10) 4.44 (19:10) 0 0 0 0 0
02-09-2020 26.8 (15:10) 21.7 (00:00) 24.3 8.33 (14:30) 4.17 (00:20) 0 0 0 0 0
01-09-2020 27.1 (14:30) 22.2 (00:00) 24.7 11.11 (17:40) 7.22 (17:40) 0 0 0 0 0
31-08-2020 24.9 (14:30) 21.3 (00:00) 23.1 13.06 (14:20) 7.78 (15:20) 0 0 0 0 0
30-08-2020 25.1 (12:50) 20.2 (00:00) 22.7 13.06 (05:20) 8.33 (17:50) 0 0 0 0 0
29-08-2020 26.5 (14:00) 22.1 (00:00) 24.3 12.78 (16:10) 8.33 (18:10) 0 0 0 0 0
28-08-2020 28.7 (00:50) 22.5 (00:00) 25.6 13.33 (15:40) 8.89 (15:10) 0 0 0 0 0

Gráficas

Temp. máximas Temp. mínimas Temp. medias Precipitaciones Rachas de viento máximas Velocidades máximas media en intervalos de 10 minutos

Datos horarios

Fecha y hora oficial Temperatura (ºC) Velocidad del viento (km/h) Dirección del viento Racha (km/h) Dirección de racha Precipitación (mm) Presión (hPa) Tendencia (hPa) Humedad (%)
2020-09-26 23:00:00 22.8 17 Noroeste 33 Norte 0 -- -- 70
2020-09-26 22:00:00 23.5 16 Noroeste 33 Noroeste 0 -- -- 69
2020-09-26 21:00:00 23.4 15 Norte 27 Norte 0 -- -- 70
2020-09-26 20:00:00 23.1 16 Noroeste 30 Noroeste 0 -- -- 70
2020-09-26 19:00:00 23.2 19 Norte 31 Norte 0 -- -- 70
2020-09-26 18:00:00 23.5 15 Norte 29 Noroeste 0 -- -- 72
2020-09-26 17:00:00 23.9 16 Norte 30 Norte 0 -- -- 71
2020-09-26 16:00:00 24.2 15 Norte 30 Norte 0 -- -- 70
2020-09-26 15:00:00 24.8 14 Norte 28 Norte 0 -- -- 68
2020-09-26 14:00:00 24.3 17 Norte 28 Norte 0 -- -- 70
2020-09-26 13:00:00 23.9 15 Norte 25 Norte 0 -- -- 72
2020-09-26 12:00:00 23.5 10 Norte 24 Norte 0 -- -- 75
2020-09-26 11:00:00 23.5 10 Norte 23 Norte 0 -- -- 75
2020-09-26 10:00:00 23.7 13 Norte 20 Noroeste 0 -- -- 77
2020-09-26 09:00:00 23.4 10 Noroeste 20 Noroeste 0 -- -- 79
2020-09-26 08:00:00 23.1 12 Noroeste 22 Noroeste 0 -- -- 80
2020-09-26 07:00:00 23 13 Noroeste 21 Noroeste 0 -- -- 80
2020-09-26 06:00:00 23.1 14 Noroeste 22 Noroeste 0 -- -- 80
2020-09-26 05:00:00 23.2 10 Noroeste 24 Noroeste 0 -- -- 81
2020-09-26 04:00:00 23 14 Noroeste 26 Oeste 0 -- -- 83
2020-09-26 03:00:00 23.1 14 Oeste 28 Noroeste 0 -- -- 81
2020-09-26 02:00:00 23.5 15 Noroeste 27 Oeste 0 -- -- 79
2020-09-26 01:00:00 23.3 15 Noroeste 30 Noroeste 0 -- -- 83
2020-09-26 00:00:00 24 13 Noroeste 26 Noroeste 0 -- -- 75
2020-09-25 23:00:00 24.1 15 Noroeste 23 Noroeste 0 -- -- 75
2020-09-25 22:00:00 25.2 8 Noroeste 18 Noroeste 0 -- -- 61
2020-09-25 21:00:00 24.8 10 Noroeste 18 Oeste 0 -- -- 66
2020-09-25 20:00:00 24.5 7 Noroeste 18 Noroeste 0 -- -- 74
2020-09-25 19:00:00 24.6 12 Norte 24 Noroeste 0 -- -- 72
2020-09-25 18:00:00 24.8 17 Norte 29 Norte 0 -- -- 67
2020-09-25 17:00:00 25.4 10 Norte 23 Noroeste 0 -- -- 72
2020-09-25 16:00:00 24.5 16 Norte 21 Noroeste 0 -- -- 73
2020-09-25 15:00:00 25.7 9 Norte 22 Noroeste 0 -- -- 69
2020-09-25 14:00:00 28.2 3 Noroeste 19 Norte 0 -- -- 61
2020-09-25 13:00:00 27.2 5 Norte 21 Nordeste 0 -- -- 55
2020-09-25 12:00:00 26.6 10 Norte 19 Norte 0 -- -- 55
2020-09-25 11:00:00 26.3 8 Norte 18 Norte 0 -- -- 53
2020-09-25 10:00:00 24.6 6 Noroeste 15 Noroeste 0 -- -- 68
2020-09-25 09:00:00 23.4 7 Noroeste 20 Noroeste 0 -- -- 79
2020-09-25 08:00:00 22.8 13 Noroeste 21 Noroeste 0 -- -- 80
2020-09-25 07:00:00 23.3 14 Noroeste 22 Noroeste 0 -- -- 68
2020-09-25 06:00:00 22.8 11 Noroeste 27 Noroeste 0 -- -- 73
2020-09-25 05:00:00 22.9 17 Oeste 23 Noroeste 0 -- -- 71
2020-09-25 04:00:00 23.3 14 Noroeste 23 Noroeste 0 -- -- 70
2020-09-25 03:00:00 23.6 14 Oeste 20 Noroeste 0 -- -- 61
2020-09-25 02:00:00 25 15 Oeste 24 Oeste 0 -- -- 50
2020-09-25 01:00:00 24.5 14 Oeste 23 Oeste 0 -- -- 55
2020-09-25 00:00:00 23.8 14 Oeste 21 Oeste 0 -- -- 64
2020-09-24 23:00:00 23.2 5 Noroeste 12 Noroeste 0 -- -- 84
2020-09-24 22:00:00 23.5 3 Norte 11 Norte 0 -- -- 84
2020-09-24 21:00:00 23.6 4 Norte 12 Nordeste 0 -- -- 83
2020-09-24 20:00:00 23.8 4 Nordeste 14 Nordeste 0 -- -- 80
2020-09-24 19:00:00 25 6 Nordeste 20 Noroeste 0 -- -- 74
2020-09-24 18:00:00 24.8 10 Norte 22 Noroeste 0 -- -- 70
2020-09-24 17:00:00 24.8 13 Norte 22 Nordeste 0 -- -- 67
2020-09-24 16:00:00 24.6 10 Nordeste 23 Nordeste 0 -- -- 72
2020-09-24 15:00:00 25.3 9 Norte 24 Norte 0 -- -- 69
2020-09-24 14:00:00 24.5 12 Norte 27 Noroeste 0 -- -- 74
2020-09-24 13:00:00 24.3 10 Noroeste 17 Noroeste 0 -- -- 80
2020-09-24 12:00:00 24.9 5 Norte 25 Noroeste 0 -- -- 74
2020-09-24 11:00:00 24.1 12 Noroeste 23 Oeste 0 -- -- 68
2020-09-24 10:00:00 23.1 8 Noroeste 18 Noroeste 0 -- -- 74
2020-09-24 09:00:00 22.7 14 Oeste 19 Noroeste 0 -- -- 78
2020-09-24 08:00:00 22.7 4 Sudoeste 18 Sudeste 0.8 -- -- 75
2020-09-24 07:00:00 22.8 11 Sudeste 19 Sudeste 0.2 -- -- 81
2020-09-24 06:00:00 23.2 12 Noroeste 27 Norte 0.2 -- -- 81
2020-09-24 05:00:00 24 9 Noroeste 31 Noroeste 0 -- -- 73
2020-09-24 04:00:00 24.4 6 Noroeste 20 Oeste 0 -- -- 59
2020-09-24 03:00:00 24.1 9 Noroeste 21 Noroeste 0 -- -- 61
2020-09-24 02:00:00 24.4 3 Este 14 Noroeste 0 -- -- 57
2020-09-24 01:00:00 25.4 3 Sudoeste 10 Noroeste 0 -- -- 48
2020-09-24 00:00:00 25.5 4 Noroeste 9 Noroeste 0 -- -- 50
2020-09-23 23:00:00 25.8 6 Noroeste 18 Noroeste 0 -- -- 48
2020-09-23 22:00:00 25.8 12 Noroeste 24 Noroeste 0 -- -- 48
2020-09-23 21:00:00 26 10 Oeste 24 Noroeste 0 -- -- 48
2020-09-23 20:00:00 25.3 11 Noroeste 44 Noroeste 0 -- -- 52
2020-09-23 19:00:00 25.6 28 Noroeste 48 Noroeste 0 -- -- 49
2020-09-23 18:00:00 25.1 30 Noroeste 53 Noroeste 0 -- -- 56
2020-09-23 17:00:00 24.4 29 Noroeste 58 Noroeste 0 -- -- 68
2020-09-23 16:00:00 23.9 30 Noroeste 52 Noroeste 0 -- -- 75
2020-09-23 15:00:00 24 25 Noroeste 45 Noroeste 0 -- -- 73
2020-09-23 14:00:00 23.9 31 Noroeste 45 Noroeste 0 -- -- 73
2020-09-23 13:00:00 25.6 21 Noroeste 36 Noroeste 0 -- -- 57
2020-09-23 12:00:00 24.8 16 Noroeste 34 Noroeste 0 -- -- 70
2020-09-23 11:00:00 23.7 22 Noroeste 38 Noroeste 0 -- -- 74
2020-09-23 10:00:00 23.3 16 Noroeste 35 Noroeste 0 -- -- 78
2020-09-23 09:00:00 22.7 22 Noroeste 34 Noroeste 0 -- -- 83
2020-09-23 08:00:00 22.7 18 Noroeste 33 Noroeste 0 -- -- 84
2020-09-23 07:00:00 22.5 17 Noroeste 31 Noroeste 0 -- -- 85
2020-09-23 06:00:00 22.5 20 Noroeste 33 Noroeste 0 -- -- 85
2020-09-23 05:00:00 22.5 23 Noroeste 35 Noroeste 0 -- -- 84
2020-09-23 04:00:00 22.7 14 Noroeste 23 Noroeste 0 -- -- 82
2020-09-23 03:00:00 22.9 10 Norte 22 Noroeste 0 -- -- 77
2020-09-23 02:00:00 23 16 Noroeste 28 Noroeste 0 -- -- 79
2020-09-23 01:00:00 23 23 Noroeste 39 Noroeste 0 -- -- 79
2020-09-23 00:00:00 23.3 21 Noroeste 35 Noroeste 0 -- -- 78
2020-09-22 23:00:00 23.2 20 Noroeste 43 Noroeste 0 -- -- 79
2020-09-22 22:00:00 23.1 21 Noroeste 38 Noroeste 0 -- -- 80
2020-09-22 21:00:00 23.3 24 Noroeste 41 Noroeste 0 -- -- 80
2020-09-22 20:00:00 23.3 23 Noroeste 45 Oeste 0 -- -- 81
2020-09-22 19:00:00 23.5 28 Noroeste 44 Noroeste 0 -- -- 80
2020-09-22 18:00:00 25.4 18 Noroeste 32 Noroeste 0 -- -- 62
2020-09-22 17:00:00 27.4 20 Noroeste 31 Noroeste 0 -- -- 54
2020-09-22 16:00:00 25.7 9 Norte 23 Norte 0 -- -- 69
2020-09-22 15:00:00 26.1 12 Norte 23 Norte 0 -- -- 71
2020-09-22 14:00:00 24.8 12 Norte 24 Nordeste 0 -- -- 72
2020-09-22 13:00:00 24.9 10 Norte 23 Nordeste 0 -- -- 70
2020-09-22 12:00:00 24.7 11 Noroeste 21 Noroeste 0 -- -- 69
2020-09-22 11:00:00 23.9 9 Noroeste 17 Noroeste 0 -- -- 72
2020-09-22 10:00:00 23.8 8 Norte 13 Norte 0 -- -- 77
2020-09-22 09:00:00 22.9 6 Norte 19 Noroeste 0 -- -- 80
2020-09-22 08:00:00 22.8 12 Noroeste 32 Noroeste 0 -- -- 81
2020-09-22 07:00:00 22.2 15 Noroeste 27 Noroeste 0 -- -- 84
2020-09-22 06:00:00 22 16 Noroeste 23 Noroeste 0 -- -- 85
2020-09-22 05:00:00 22 15 Noroeste 21 Noroeste 0 -- -- 84
2020-09-22 04:00:00 22.1 15 Noroeste 23 Noroeste 0 -- -- 84
2020-09-22 03:00:00 22.2 11 Noroeste 22 Noroeste 0 -- -- 83
2020-09-22 02:00:00 22.3 15 Noroeste 26 Noroeste 0 -- -- 81
2020-09-22 01:00:00 22.3 15 Noroeste 32 Noroeste 0 -- -- 82
2020-09-22 00:00:00 22.5 14 Noroeste 28 Noroeste 0 -- -- 82
2020-09-21 23:00:00 22.7 17 Noroeste 26 Noroeste 0 -- -- 80
2020-09-21 22:00:00 22.9 13 Noroeste 28 Noroeste 0 -- -- 79
2020-09-21 21:00:00 23 17 Noroeste 26 Noroeste 0 -- -- 79
2020-09-21 20:00:00 23.4 12 Norte 23 Norte 0 -- -- 79
2020-09-21 19:00:00 23.8 15 Noroeste 32 Noroeste 0 -- -- 75
2020-09-21 18:00:00 24 23 Noroeste 34 Noroeste 0 -- -- 74
2020-09-21 17:00:00 24.1 23 Noroeste 37 Noroeste 0 -- -- 73
2020-09-21 16:00:00 24 24 Noroeste 36 Noroeste 0 -- -- 70
2020-09-21 15:00:00 25.9 19 Noroeste 32 Noroeste 0 -- -- 69
2020-09-21 14:00:00 24.5 15 Norte 28 Norte 0 -- -- 69
2020-09-21 13:00:00 24.7 10 Nordeste 25 Noroeste 0 -- -- 68
2020-09-21 12:00:00 24.9 12 Noroeste 32 Noroeste 0 -- -- 69
2020-09-21 11:00:00 24.1 10 Norte 22 Norte 0 -- -- 72
2020-09-21 10:00:00 23.1 13 Noroeste 30 Noroeste 0 -- -- 75
2020-09-21 09:00:00 22.3 13 Noroeste 27 Noroeste 0 -- -- 78
2020-09-21 08:00:00 22.1 18 Noroeste 27 Noroeste 0 -- -- 78
2020-09-21 07:00:00 22.2 17 Noroeste 28 Noroeste 0 -- -- 77
2020-09-21 06:00:00 22.2 15 Noroeste 30 Noroeste 0 -- -- 76
2020-09-21 05:00:00 22.3 21 Noroeste 34 Noroeste 0 -- -- 77
2020-09-21 04:00:00 22.4 22 Noroeste 33 Noroeste 0 -- -- 77
2020-09-21 03:00:00 22.2 17 Noroeste 32 Noroeste 0 -- -- 78
2020-09-21 02:00:00 22.3 16 Noroeste 34 Noroeste 0 -- -- 79
2020-09-21 01:00:00 22.3 18 Noroeste 32 Noroeste 0 -- -- 79
2020-09-21 00:00:00 22.3 19 Noroeste 32 Noroeste 0 -- -- 79
2020-09-20 23:00:00 22.5 20 Noroeste 30 Norte 0 -- -- 79
2020-09-20 22:00:00 22.5 17 Noroeste 31 Noroeste 0 -- -- 79
2020-09-20 21:00:00 22.8 15 Noroeste 26 Noroeste 0 -- -- 77
2020-09-20 20:00:00 23.5 11 Noroeste 24 Noroeste 0 -- -- 75
2020-09-20 19:00:00 23.3 15 Norte 27 Norte 0 -- -- 74
2020-09-20 18:00:00 24 13 Norte 24 Nordeste 0 -- -- 72
2020-09-20 17:00:00 24.4 9 Norte 20 Nordeste 0 -- -- 68
2020-09-20 16:00:00 24.1 12 Norte 23 Norte 0 -- -- 68
2020-09-20 15:00:00 25.1 8 Nordeste 24 Nordeste 0 -- -- 66
2020-09-20 14:00:00 24.9 8 Nordeste 21 Nordeste 0 -- -- 64
2020-09-20 13:00:00 24.3 10 Nordeste 22 Nordeste 0 -- -- 66
2020-09-20 12:00:00 24.1 7 Norte 24 Nordeste 0 -- -- 64
2020-09-20 11:00:00 23.7 6 Norte 19 Noroeste 0 -- -- 68
2020-09-20 10:00:00 23.6 8 Norte 18 Noroeste 0 -- -- 72
2020-09-20 09:00:00 22.3 8 Noroeste 15 Norte 0 -- -- 74
2020-09-20 08:00:00 21.8 8 Norte 14 Norte 0 -- -- 75
2020-09-20 07:00:00 22 8 Norte 17 Norte 0 -- -- 75
2020-09-20 06:00:00 22.1 7 Norte 15 Norte 0 -- -- 74
2020-09-20 05:00:00 22 9 Norte 17 Norte 0 -- -- 74
2020-09-20 04:00:00 22 6 Norte 17 Norte 0 -- -- 74
2020-09-20 03:00:00 21.9 13 Norte 20 Norte 0 -- -- 74
2020-09-20 02:00:00 22.1 10 Norte 18 Nordeste 0 -- -- 73
2020-09-20 01:00:00 22.3 7 Norte 18 Nordeste 0 -- -- 74
2020-09-20 00:00:00 22.2 8 Norte 18 Norte 0 -- -- 74
2020-09-19 23:00:00 22.6 10 Norte 20 Noroeste 0 -- -- 74
2020-09-19 22:00:00 22.3 10 Norte 23 Norte 0 -- -- 74
2020-09-19 21:00:00 22.3 15 Norte 24 Norte 0 -- -- 74
2020-09-19 20:00:00 22.5 14 Norte 24 Norte 0 -- -- 73
2020-09-19 19:00:00 22.7 16 Norte 25 Norte 0 -- -- 70
2020-09-19 18:00:00 24.4 9 Norte 21 Norte 0 -- -- 64
2020-09-19 17:00:00 23.7 12 Nordeste 23 Nordeste 0 -- -- 65
2020-09-19 16:00:00 24.1 12 Norte 23 Norte 0 -- -- 66
2020-09-19 15:00:00 23.5 12 Norte 24 Norte 0 -- -- 64
2020-09-19 14:00:00 24.4 10 Nordeste 22 Nordeste 0 -- -- 62
2020-09-19 13:00:00 24.5 11 Nordeste 22 Nordeste 0 -- -- 62
2020-09-19 12:00:00 25.2 8 Nordeste 26 Nordeste 0 -- -- 61
2020-09-19 11:00:00 23.9 8 Norte 22 Nordeste 0 -- -- 62
2020-09-19 10:00:00 24.2 6 Nordeste 18 Nordeste 0 -- -- 66
2020-09-19 09:00:00 22.3 8 Norte 15 Norte 0 -- -- 70
2020-09-19 08:00:00 21.9 8 Norte 16 Norte 0 -- -- 73
2020-09-19 07:00:00 22.4 6 Norte 17 Norte 0 -- -- 73
2020-09-19 06:00:00 22.2 4 Norte 16 Norte 0 -- -- 73
2020-09-19 05:00:00 22.1 8 Norte 17 Norte 0 -- -- 74
2020-09-19 04:00:00 22 10 Norte 17 Norte 0 -- -- 74
2020-09-19 03:00:00 22.2 10 Noroeste 15 Norte 0 -- -- 74
2020-09-19 02:00:00 22.3 9 Norte 18 Noroeste 0 -- -- 73
2020-09-19 01:00:00 22.3 12 Noroeste 19 Noroeste 0 -- -- 72
2020-09-19 00:00:00 22.5 13 Norte 23 Norte 0 -- -- 72
2020-09-18 23:00:00 22.6 13 Noroeste 23 Noroeste 0 -- -- 72
2020-09-18 22:00:00 22.8 10 Noroeste 22 Noroeste 0 -- -- 69
2020-09-18 21:00:00 22.7 15 Norte 25 Norte 0 -- -- 69
2020-09-18 20:00:00 23 15 Norte 24 Norte 0 -- -- 67
2020-09-18 19:00:00 23.5 13 Norte 31 Norte 0 -- -- 67
2020-09-18 18:00:00 24.2 16 Norte 27 Nordeste 0 -- -- 68
2020-09-18 17:00:00 25.5 10 Norte 28 Norte 0 -- -- 59
2020-09-18 16:00:00 23.7 14 Norte 27 Norte 0 -- -- 68
2020-09-18 15:00:00 24.9 14 Norte 27 Nordeste 0 -- -- 67
2020-09-18 14:00:00 23.9 14 Norte 29 Norte 0 -- -- 64
2020-09-18 13:00:00 24 13 Norte 24 Norte 0 -- -- 64
2020-09-18 12:00:00 23.9 12 Noroeste 29 Noroeste 0 -- -- 63
2020-09-18 11:00:00 23.8 15 Noroeste 27 Noroeste 0 -- -- 66
2020-09-18 10:00:00 23.4 13 Norte 27 Noroeste 0 -- -- 66
2020-09-18 09:00:00 22.8 14 Noroeste 22 Noroeste 0 -- -- 70
2020-09-18 08:00:00 22.3 15 Noroeste 25 Noroeste 0 -- -- 72
2020-09-18 07:00:00 22.3 17 Noroeste 28 Noroeste 0 -- -- 72
2020-09-18 06:00:00 22.4 23 Noroeste 33 Noroeste 0 -- -- 72
2020-09-18 05:00:00 22.4 18 Noroeste 30 Noroeste 0 -- -- 70
2020-09-18 04:00:00 22.5 16 Noroeste 49 Noroeste 0 -- -- 69
2020-09-18 03:00:00 22.6 20 Noroeste 46 Noroeste 0 -- -- 68
2020-09-18 02:00:00 22.5 29 Noroeste 43 Noroeste 0 -- -- 73
2020-09-18 01:00:00 22.7 28 Noroeste 46 Noroeste 0 -- -- 72
2020-09-18 00:00:00 22.7 26 Noroeste 44 Noroeste 0 -- -- 72
2020-09-17 23:00:00 22.7 24 Noroeste 42 Noroeste 0 -- -- 70
2020-09-17 22:00:00 22.9 31 Noroeste 49 Noroeste 0 -- -- 68
2020-09-17 21:00:00 22.9 27 Noroeste 52 Noroeste 0 -- -- 74
2020-09-17 20:00:00 23.3 35 Noroeste 52 Noroeste 0 -- -- 76
2020-09-17 19:00:00 23.2 30 Noroeste 44 Noroeste 0 -- -- 78
2020-09-17 18:00:00 23.8 20 Noroeste 42 Noroeste 0 -- -- 79
2020-09-17 17:00:00 23.9 23 Noroeste 39 Noroeste 0 -- -- 74
2020-09-17 16:00:00 24.8 13 Noroeste 28 Noroeste 0 -- -- 68
2020-09-17 15:00:00 24.5 14 Norte 33 Noroeste 0 -- -- 67
2020-09-17 14:00:00 25.9 15 Norte 34 Noroeste 0 -- -- 67
2020-09-17 13:00:00 23.9 24 Noroeste 40 Noroeste 0 -- -- 73
2020-09-17 12:00:00 23.6 18 Noroeste 34 Noroeste 0 -- -- 77
2020-09-17 11:00:00 24.7 14 Noroeste 40 Noroeste 0 -- -- 74
2020-09-17 10:00:00 23.7 17 Noroeste 29 Noroeste 0 -- -- 80
2020-09-17 09:00:00 23.3 15 Noroeste 31 Noroeste 0 -- -- 84
2020-09-17 08:00:00 23 12 Noroeste 27 Noroeste 0 -- -- 85
2020-09-17 07:00:00 23.1 16 Noroeste 30 Noroeste 0 -- -- 85
2020-09-17 06:00:00 23.2 14 Noroeste 33 Noroeste 0 -- -- 81
2020-09-17 05:00:00 23.2 19 Noroeste 33 Noroeste 0 -- -- 81
2020-09-17 04:00:00 23.4 19 Noroeste 33 Noroeste 0 -- -- 79
2020-09-17 03:00:00 23.4 19 Noroeste 34 Noroeste 0 -- -- 85
2020-09-17 02:00:00 23.5 21 Noroeste 39 Noroeste 0 -- -- 84
2020-09-17 01:00:00 23.4 20 Noroeste 33 Noroeste 0 -- -- 85
2020-09-17 00:00:00 23.9 13 Noroeste 21 Norte 0 -- -- 81
2020-09-16 23:00:00 24 9 Norte 17 Noroeste 0 -- -- 83
2020-09-16 22:00:00 24.7 11 Norte 18 Norte 0 -- -- 79
2020-09-16 21:00:00 24.7 8 Norte 18 Norte 0 -- -- 79
2020-09-16 20:00:00 25 11 Norte 18 Norte 0 -- -- 74
2020-09-16 19:00:00 27.8 5 Norte 19 Oeste 0 -- -- 53
2020-09-16 18:00:00 29.3 10 Noroeste 16 Noroeste 0 -- -- 42
2020-09-16 17:00:00 31.5 2 Norte 13 Nordeste 0 -- -- 35
2020-09-16 16:00:00 32.8 0 Calma 12 Norte 0 -- -- 29
2020-09-16 15:00:00 31.6 4 Norte 12 Nordeste 0 -- -- 30
2020-09-16 14:00:00 34.3 0 Calma 15 Nordeste 0 -- -- 28
2020-09-16 13:00:00 30.5 0 Calma 16 Norte 0 -- -- 41
2020-09-16 12:00:00 27.6 0 Calma 15 Norte 0 -- -- 55
2020-09-16 11:00:00 25.4 3 Noroeste 17 Norte 0 -- -- 62
2020-09-16 10:00:00 25.2 8 Noroeste 32 Oeste 0 -- -- 61
2020-09-16 09:00:00 23.4 16 Noroeste 29 Oeste 0 -- -- 75
2020-09-16 08:00:00 22.8 19 Noroeste 33 Noroeste 0 -- -- 81
2020-09-16 07:00:00 22.6 21 Noroeste 33 Noroeste 0 -- -- 84
2020-09-16 06:00:00 23 21 Noroeste 31 Noroeste 0 -- -- 79
2020-09-16 05:00:00 23.5 17 Oeste 32 Noroeste 0 -- -- 67
2020-09-16 04:00:00 22.6 16 Noroeste 33 Noroeste 0 -- -- 81
2020-09-16 03:00:00 22.7 18 Noroeste 30 Noroeste 0 -- -- 83
2020-09-16 02:00:00 22.9 18 Noroeste 30 Noroeste 0 -- -- 80
2020-09-16 01:00:00 22.9 21 Noroeste 35 Noroeste 0 -- -- 81
2020-09-16 00:00:00 23.1 17 Noroeste 30 Oeste 0 -- -- 79
2020-09-15 23:00:00 23.1 14 Noroeste 36 Noroeste 0 -- -- 79
2020-09-15 22:00:00 23.1 15 Noroeste 38 Oeste 0 -- -- 78
2020-09-15 21:00:00 23.4 19 Oeste 40 Noroeste 0 -- -- 75
2020-09-15 20:00:00 23.7 21 Noroeste 33 Noroeste 0 -- -- 72
2020-09-15 19:00:00 24.3 8 Noroeste 24 Noroeste 0 -- -- 70
2020-09-15 18:00:00 25.4 9 Noroeste 23 Noroeste 0 -- -- 68
2020-09-15 17:00:00 24.1 13 Norte 26 Norte 0 -- -- 70
2020-09-15 16:00:00 23.9 14 Norte 22 Noroeste 0 -- -- 72
2020-09-15 15:00:00 23.3 12 Norte 22 Noroeste 0 -- -- 73
2020-09-15 14:00:00 24.2 4 Norte 23 Norte 0 -- -- 72
2020-09-15 13:00:00 24.4 7 Norte 15 Norte 0 -- -- 72
2020-09-15 12:00:00 23.5 7 Norte 36 Norte 0 -- -- 78
2020-09-15 11:00:00 23.7 8 Norte 26 Noroeste 0 -- -- 76
2020-09-15 10:00:00 23 15 Noroeste 30 Noroeste 0 -- -- 79
2020-09-15 09:00:00 22.8 15 Noroeste 23 Noroeste 0 -- -- 79
2020-09-15 08:00:00 22.7 12 Noroeste 23 Noroeste 0 -- -- 79
2020-09-15 07:00:00 22.6 13 Noroeste 21 Norte 0 -- -- 79
2020-09-15 06:00:00 22.6 12 Norte 18 Norte 0 -- -- 80
2020-09-15 05:00:00 22.8 5 Norte 13 Noroeste 0 -- -- 79
2020-09-15 04:00:00 22.8 6 Norte 13 Noroeste 0 -- -- 79
2020-09-15 03:00:00 22.8 7 Noroeste 24 Noroeste 0 -- -- 78
2020-09-15 02:00:00 22.9 18 Noroeste 32 Noroeste 0 -- -- 78
2020-09-15 01:00:00 23.1 13 Noroeste 24 Noroeste 0 -- -- 75
2020-09-15 00:00:00 23.4 5 Noroeste 14 Noroeste 0 -- -- 73
2020-09-14 23:00:00 23.2 6 Noroeste 20 Noroeste 0 -- -- 75
2020-09-14 22:00:00 23.2 13 Noroeste 22 Noroeste 0 -- -- 74
2020-09-14 21:00:00 23.1 10 Norte 18 Norte 0 -- -- 75
2020-09-14 20:00:00 24.1 8 Norte 20 Norte 0 -- -- 72
2020-09-14 19:00:00 23.8 13 Norte 24 Norte 0 -- -- 72
2020-09-14 18:00:00 24.1 15 Norte 24 Norte 0 -- -- 68
2020-09-14 17:00:00 25.5 8 Norte 24 Norte 0 -- -- 64
2020-09-14 16:00:00 24.4 13 Norte 22 Norte 0 -- -- 67
2020-09-14 15:00:00 26.3 9 Nordeste 22 Nordeste 0 -- -- 66
2020-09-14 14:00:00 24.3 10 Nordeste 21 Nordeste 0 -- -- 68
2020-09-14 13:00:00 24.9 11 Nordeste 21 Nordeste 0 -- -- 67
2020-09-14 12:00:00 25.1 8 Nordeste 17 Nordeste 0 -- -- 68
2020-09-14 11:00:00 24.5 9 Nordeste 17 Nordeste 0 -- -- 70
2020-09-14 10:00:00 25.6 3 Norte 12 Nordeste 0 -- -- 67
2020-09-14 09:00:00 23 0 Calma 12 Noroeste 0 -- -- 75
2020-09-14 08:00:00 21.8 6 Oeste 11 Oeste 0 -- -- 80
2020-09-14 07:00:00 21.8 0 Calma 0 Calma 0 -- -- 81
2020-09-14 06:00:00 22.1 0 Calma 7 Oeste 0 -- -- 81
2020-09-14 05:00:00 22 0 Calma 10 Noroeste 0 -- -- 81
2020-09-14 04:00:00 22.3 6 Noroeste 13 Norte 0 -- -- 83
2020-09-14 03:00:00 22.3 9 Noroeste 15 Noroeste 0 -- -- 81
2020-09-14 02:00:00 22.4 10 Noroeste 16 Noroeste 0 -- -- 81
2020-09-14 01:00:00 22.6 9 Noroeste 13 Noroeste 0 -- -- 81
2020-09-14 00:00:00 22.7 8 Noroeste 14 Noroeste 0 -- -- 80
2020-09-13 23:00:00 22.7 7 Norte 13 Norte 0 -- -- 80
2020-09-13 22:00:00 22.9 8 Norte 15 Norte 0 -- -- 80
2020-09-13 21:00:00 23.3 7 Norte 15 Norte 0 -- -- 76
2020-09-13 20:00:00 23.2 5 Norte 17 Noroeste 0 -- -- 77
2020-09-13 19:00:00 23.4 10 Noroeste 24 Norte 0 -- -- 74
2020-09-13 18:00:00 26.3 6 Nordeste 18 Nordeste 0 -- -- 71
2020-09-13 17:00:00 24.1 9 Nordeste 18 Norte 0 -- -- 73
2020-09-13 16:00:00 24.5 5 Nordeste 12 Norte 0 -- -- 70
2020-09-13 15:00:00 24.8 8 Sudeste 15 Sur 0 -- -- 70
2020-09-13 14:00:00 26.2 0 Calma 12 Sur 0 -- -- 69
2020-09-13 13:00:00 25.6 0 Calma 9 Sudeste 0 -- -- 69
2020-09-13 12:00:00 24.6 0 Calma 15 Sudeste 0 -- -- 74
2020-09-13 11:00:00 24.3 7 Sudeste 17 Sudeste 0 -- -- 73
2020-09-13 10:00:00 24.6 0 Calma 14 Sudeste 0 -- -- 73
2020-09-13 09:00:00 22.8 9 Sudeste 14 Sudeste 0 -- -- 79
2020-09-13 08:00:00 22.4 5 Sudeste 12 Sudeste 0 -- -- 80
2020-09-13 07:00:00 22.4 0 Calma 9 Este 0 -- -- 80
2020-09-13 06:00:00 22.2 0 Calma 8 Nordeste 0 -- -- 79
2020-09-13 05:00:00 22.2 0 Calma -- -- 0 -- -- 79
2020-09-13 04:00:00 22.3 2 Sudeste 12 Sudeste 0 -- -- 79
2020-09-13 03:00:00 22.5 0 Calma 9 Sudeste 0 -- -- 78
2020-09-13 02:00:00 22.5 2 Sudeste 11 Este 0 -- -- 78
2020-09-13 01:00:00 22.5 5 Nordeste 11 Noroeste 0 -- -- 75
2020-09-13 00:00:00 22.5 4 Norte 10 Norte 0 -- -- 75
2020-09-12 23:00:00 22.7 4 Norte 9 Noroeste 0 -- -- 74
2020-09-12 22:00:00 22.7 4 Norte 15 Nordeste 0 -- -- 74
2020-09-12 21:00:00 23 4 Noroeste 19 Noroeste 0 -- -- 73
2020-09-12 20:00:00 23.2 11 Noroeste 24 Noroeste 0 -- -- 72
2020-09-12 19:00:00 23.6 17 Noroeste 27 Noroeste 0 -- -- 69
2020-09-12 18:00:00 24.1 10 Norte 21 Norte 0 -- -- 68
2020-09-12 17:00:00 25 9 Nordeste 17 Nordeste 0 -- -- 67
2020-09-12 16:00:00 25.3 11 Nordeste 20 Nordeste 0 -- -- 66
2020-09-12 15:00:00 24.5 12 Nordeste 23 Nordeste 0 -- -- 68
2020-09-12 14:00:00 24 13 Nordeste 29 Noroeste 0 -- -- 68
2020-09-12 13:00:00 23.8 15 Noroeste 27 Noroeste 0 -- -- 66
2020-09-12 12:00:00 24.4 8 Noroeste 30 Noroeste 0 -- -- 68
2020-09-12 11:00:00 23.1 13 Noroeste 27 Noroeste 0 -- -- 69
2020-09-12 10:00:00 23.4 10 Noroeste 22 Noroeste 0 -- -- 70
2020-09-12 09:00:00 22.7 8 Noroeste 17 Noroeste 0 -- -- 74
2020-09-12 08:00:00 22.2 11 Noroeste 17 Noroeste 0 -- -- 75
2020-09-12 07:00:00 22.3 8 Noroeste 18 Noroeste 0 -- -- 75
2020-09-12 06:00:00 22.4 11 Noroeste 23 Noroeste 0 -- -- 77
2020-09-12 05:00:00 22.5 12 Noroeste 30 Noroeste 0 -- -- 76
2020-09-12 04:00:00 22.4 13 Noroeste 28 Norte 0 -- -- 75
2020-09-12 03:00:00 22.5 17 Noroeste 34 Noroeste 0 -- -- 75
2020-09-12 02:00:00 22.4 18 Noroeste 30 Noroeste 0 -- -- 74
2020-09-12 01:00:00 22.6 14 Noroeste 29 Noroeste 0 -- -- 73
2020-09-12 00:00:00 22.8 18 Noroeste 29 Noroeste 0 -- -- 72
2020-09-11 23:00:00 22.9 13 Noroeste 22 Noroeste 0 -- -- 70
2020-09-11 22:00:00 23.2 12 Noroeste 27 Norte 0 -- -- 70
2020-09-11 21:00:00 22.9 15 Noroeste 32 Noroeste 0 -- -- 70
2020-09-11 20:00:00 23 21 Noroeste 35 Noroeste 0 -- -- 70
2020-09-11 19:00:00 23.4 16 Noroeste 39 Noroeste 0 -- -- 69
2020-09-11 18:00:00 24.4 16 Noroeste 36 Noroeste 0 -- -- 69
2020-09-11 17:00:00 24.3 23 Noroeste 40 Noroeste 0 -- -- 68
2020-09-11 16:00:00 23.7 21 Noroeste 37 Noroeste 0 -- -- 67
2020-09-11 15:00:00 23.5 21 Noroeste 35 Oeste 0 -- -- 67
2020-09-11 14:00:00 23.7 24 Norte 39 Oeste 0 -- -- 66
2020-09-11 13:00:00 23.3 23 Noroeste 37 Noroeste 0 -- -- 69
2020-09-11 12:00:00 23.9 26 Norte 40 Noroeste 0 -- -- 66
2020-09-11 11:00:00 23.1 19 Noroeste 33 Norte 0 -- -- 66
2020-09-11 10:00:00 23.3 16 Noroeste 32 Noroeste 0 -- -- 68
2020-09-11 09:00:00 23 17 Norte 32 Noroeste 0 -- -- 69
2020-09-11 08:00:00 22.6 20 Noroeste 36 Noroeste 0 -- -- 70
2020-09-11 07:00:00 22.7 23 Noroeste 40 Noroeste 0 -- -- 69
2020-09-11 06:00:00 22.7 15 Noroeste 34 Noroeste 0 -- -- 70
2020-09-11 05:00:00 22.5 19 Noroeste 39 Noroeste 0 -- -- 72
2020-09-11 04:00:00 22.4 19 Noroeste 36 Noroeste 0 -- -- 70
2020-09-11 03:00:00 22.6 20 Noroeste 33 Oeste 0 -- -- 70
2020-09-11 02:00:00 22.6 23 Noroeste 39 Oeste 0 -- -- 70
2020-09-11 01:00:00 22.7 17 Noroeste 34 Noroeste 0 -- -- 72
2020-09-11 00:00:00 22.6 20 Noroeste 34 Norte 0 -- -- 73
2020-09-10 23:00:00 22.8 18 Noroeste 40 Noroeste 0 -- -- 72
2020-09-10 22:00:00 23.5 24 Noroeste 47 Noroeste 0 -- -- 71
2020-09-10 21:00:00 22.9 21 Noroeste 44 Noroeste 0 -- -- 70
2020-09-10 20:00:00 23.5 18 Noroeste 35 Noroeste 0 -- -- 70
2020-09-10 19:00:00 23.1 24 Noroeste 39 Noroeste 0 -- -- 70
2020-09-10 18:00:00 23.7 18 Noroeste 40 Noroeste 0 -- -- 69
2020-09-10 17:00:00 24.5 18 Noroeste 34 Noroeste 0 -- -- 67
2020-09-10 16:00:00 25 16 Noroeste 32 Noroeste 0 -- -- 66
2020-09-10 15:00:00 24.8 16 Norte 35 Oeste 0 -- -- 66
2020-09-10 14:00:00 24.2 15 Noroeste 41 Noroeste 0 -- -- 67
2020-09-10 13:00:00 24.4 14 Norte 31 Noroeste 0 -- -- 67
2020-09-10 12:00:00 24.8 16 Noroeste 32 Noroeste 0 -- -- 67
2020-09-10 11:00:00 23.3 17 Noroeste 36 Noroeste 0 -- -- 70
2020-09-10 10:00:00 23 20 Noroeste 43 Noroeste 0 -- -- 72
2020-09-10 09:00:00 22.7 20 Noroeste 41 Noroeste 0 -- -- 74
2020-09-10 08:00:00 22.7 26 Noroeste 41 Noroeste 0 -- -- 75
2020-09-10 07:00:00 22.4 28 Noroeste 43 Noroeste 0 -- -- 78
2020-09-10 06:00:00 22.5 23 Noroeste 39 Noroeste 0 -- -- 78
2020-09-10 05:00:00 22.5 21 Noroeste 37 Noroeste 0 -- -- 79
2020-09-10 04:00:00 22.4 23 Noroeste 39 Noroeste 0 -- -- 80
2020-09-10 03:00:00 22.6 24 Noroeste 40 Noroeste 0 -- -- 80
2020-09-10 02:00:00 22.8 20 Noroeste 39 Noroeste 0 -- -- 80
2020-09-10 01:00:00 23.4 23 Oeste 36 Oeste 0 -- -- 75
2020-09-10 00:00:00 23.7 18 Noroeste 33 Noroeste 0 -- -- 73
2020-09-09 23:00:00 24.4 15 Oeste 33 Noroeste 0 -- -- 63
2020-09-09 22:00:00 25.1 14 Noroeste 30 Noroeste 0 -- -- 55
2020-09-09 21:00:00 25.6 18 Noroeste 30 Noroeste 0 -- -- 55
2020-09-09 20:00:00 26.3 15 Noroeste 33 Oeste 0 -- -- 52
2020-09-09 19:00:00 26.8 17 Noroeste 31 Noroeste 0 -- -- 52
2020-09-09 18:00:00 27.5 17 Noroeste 28 Noroeste 0 -- -- 52
2020-09-09 17:00:00 27.8 13 Noroeste 26 Noroeste 0 -- -- 48
2020-09-09 16:00:00 28.1 10 Noroeste 31 Oeste 0 -- -- 53
2020-09-09 15:00:00 26.7 16 Noroeste 32 Noroeste 0 -- -- 57
2020-09-09 14:00:00 28 12 Norte 27 Norte 0 -- -- 50
2020-09-09 13:00:00 28.2 9 Norte 22 Noroeste 0 -- -- 50
2020-09-09 12:00:00 28 10 Noroeste 30 Oeste 0 -- -- 50
2020-09-09 11:00:00 26.7 14 Noroeste 39 Noroeste 0 -- -- 52
2020-09-09 10:00:00 27.2 16 Noroeste 31 Noroeste 0 -- -- 54
2020-09-09 09:00:00 25.8 13 Noroeste 33 Noroeste 0 -- -- 55
2020-09-09 08:00:00 25.6 15 Noroeste 29 Noroeste 0 -- -- 52
2020-09-09 07:00:00 25.1 17 Noroeste 32 Noroeste 0 -- -- 56
2020-09-09 06:00:00 25.1 20 Noroeste 33 Noroeste 0 -- -- 57
2020-09-09 05:00:00 24.8 22 Oeste 39 Noroeste 0 -- -- 59
2020-09-09 04:00:00 24.6 24 Oeste 41 Noroeste 0 -- -- 63
2020-09-09 03:00:00 25.6 19 Noroeste 49 Noroeste 0 -- -- 58
2020-09-09 02:00:00 25 25 Noroeste 39 Noroeste 0 -- -- 63
2020-09-09 01:00:00 25 17 Noroeste 33 Oeste 0 -- -- 64
2020-09-09 00:00:00 25.2 19 Noroeste 33 Oeste 0 -- -- 64
2020-09-08 23:00:00 26.3 19 Noroeste 38 Noroeste 0 -- -- 66
2020-09-08 22:00:00 25.3 19 Noroeste 34 Noroeste 0 -- -- 66
2020-09-08 21:00:00 25.3 18 Noroeste 36 Oeste 0 -- -- 68
2020-09-08 20:00:00 25.6 17 Noroeste 30 Oeste 0 -- -- 64
2020-09-08 19:00:00 26.3 15 Noroeste 34 Noroeste 0 -- -- 61
2020-09-08 18:00:00 26.8 15 Noroeste 36 Noroeste 0 -- -- 59
2020-09-08 17:00:00 27.1 21 Noroeste 39 Noroeste 0 -- -- 62
2020-09-08 16:00:00 27.6 17 Noroeste 39 Noroeste 0 -- -- 50
2020-09-08 15:00:00 28 19 Noroeste 37 Noroeste 0 -- -- 53
2020-09-08 14:00:00 27.2 22 Noroeste 37 Noroeste 0 -- -- 53
2020-09-08 13:00:00 29 22 Noroeste 35 Noroeste 0 -- -- 42
2020-09-08 12:00:00 29.1 14 Noroeste 31 Oeste 0 -- -- 41
2020-09-08 11:00:00 30.1 7 Norte 26 Noroeste 0 -- -- 37
2020-09-08 10:00:00 29.7 11 Noroeste 22 Noroeste 0 -- -- 39
2020-09-08 09:00:00 27.6 10 Noroeste 23 Noroeste 0 -- -- 41
2020-09-08 08:00:00 26.4 11 Noroeste 25 Oeste 0 -- -- 42
2020-09-08 07:00:00 26.3 15 Noroeste 26 Noroeste 0 -- -- 45
2020-09-08 06:00:00 26.5 16 Noroeste 29 Noroeste 0 -- -- 44
2020-09-08 05:00:00 26.9 17 Noroeste 24 Noroeste 0 -- -- 44
2020-09-08 04:00:00 26.8 16 Noroeste 28 Noroeste 0 -- -- 44
2020-09-08 03:00:00 27.7 10 Noroeste 23 Noroeste 0 -- -- 41
2020-09-08 02:00:00 27.1 12 Noroeste 25 Oeste 0 -- -- 42
2020-09-08 01:00:00 28 11 Noroeste 21 Norte 0 -- -- 36
2020-09-08 00:00:00 28.5 4 Noroeste 20 Noroeste 0 -- -- 34
2020-09-07 23:00:00 28.5 3 Noroeste 21 Oeste 0 -- -- 35
2020-09-07 22:00:00 28.5 10 Noroeste 18 Noroeste 0 -- -- 36
2020-09-07 21:00:00 28.5 5 Noroeste 17 Noroeste 0 -- -- 36
2020-09-07 20:00:00 28.9 6 Noroeste 19 Noroeste 0 -- -- 39
2020-09-07 19:00:00 29.6 5 Noroeste 20 Norte 0 -- -- 40
2020-09-07 18:00:00 26.6 11 Noroeste 22 Noroeste 0 -- -- 48
2020-09-07 17:00:00 24.5 9 Norte 21 Noroeste 0 -- -- 74
2020-09-07 16:00:00 24.9 12 Norte 24 Nordeste 0 -- -- 74
2020-09-07 15:00:00 25.3 12 Norte 25 Norte 0 -- -- 72
2020-09-07 14:00:00 26.9 8 Norte 28 Noroeste 0 -- -- 68
2020-09-07 13:00:00 23.9 19 Norte 29 Noroeste 0 -- -- 77
2020-09-07 12:00:00 24.1 17 Noroeste 28 Noroeste 0 -- -- 77
2020-09-07 11:00:00 23.8 13 Noroeste 34 Noroeste 0 -- -- 79
2020-09-07 10:00:00 22.9 24 Noroeste 37 Noroeste 0 -- -- 81
2020-09-07 09:00:00 22.8 15 Noroeste 26 Noroeste 0 -- -- 84
2020-09-07 08:00:00 22.9 14 Noroeste 27 Noroeste 0 -- -- 84
2020-09-07 07:00:00 22.6 14 Noroeste 19 Noroeste 0 -- -- 83
2020-09-07 06:00:00 22.5 11 Noroeste 21 Oeste 0 -- -- 83
2020-09-07 05:00:00 22.5 11 Noroeste 19 Noroeste 0 -- -- 81
2020-09-07 04:00:00 22.7 9 Noroeste 38 Noroeste 0 -- -- 81
2020-09-07 03:00:00 22.6 13 Noroeste 20 Noroeste 0 -- -- 80
2020-09-07 02:00:00 22.8 5 Norte 15 Norte 0 -- -- 79
2020-09-07 01:00:00 22.6 9 Noroeste 17 Noroeste 0 -- -- 79
2020-09-07 00:00:00 22.6 13 Norte 25 Noroeste 0 -- -- 78
2020-09-06 23:00:00 22.6 15 Noroeste 23 Noroeste 0 -- -- 77
2020-09-06 22:00:00 22.7 10 Norte 20 Nordeste 0 -- -- 77
2020-09-06 21:00:00 22.9 10 Noroeste 20 Norte 0 -- -- 75
2020-09-06 20:00:00 23.9 10 Noroeste 23 Nordeste 0 -- -- 74
2020-09-06 19:00:00 23.3 11 Norte 23 Nordeste 0 -- -- 72
2020-09-06 18:00:00 23.9 12 Norte 25 Nordeste 0 -- -- 70
2020-09-06 17:00:00 24.2 12 Norte 27 Nordeste 0 -- -- 68
2020-09-06 16:00:00 23.7 15 Norte 27 Norte 0 -- -- 69
2020-09-06 15:00:00 23.9 14 Nordeste 30 Nordeste 0 -- -- 69
2020-09-06 14:00:00 24.7 12 Norte 26 Nordeste 0 -- -- 68
2020-09-06 13:00:00 25.2 12 Norte 26 Nordeste 0 -- -- 69
2020-09-06 12:00:00 24.3 9 Norte 32 Noroeste 0 -- -- 67
2020-09-06 11:00:00 23.2 19 Noroeste 31 Oeste 0 -- -- 69
2020-09-06 10:00:00 22.9 15 Noroeste 28 Noroeste 0 -- -- 72
2020-09-06 09:00:00 22.2 14 Noroeste 30 Noroeste 0 -- -- 75
2020-09-06 08:00:00 22.1 15 Noroeste 31 Noroeste 0 -- -- 77
2020-09-06 07:00:00 21.9 9 Noroeste 22 Noroeste 0 -- -- 79
2020-09-06 06:00:00 22 12 Noroeste 21 Noroeste 0 -- -- 79
2020-09-06 05:00:00 21.9 13 Noroeste 22 Noroeste 0 -- -- 79
2020-09-06 04:00:00 22 11 Noroeste 18 Noroeste 0 -- -- 78
2020-09-06 03:00:00 22.1 11 Noroeste 22 Noroeste 0 -- -- 78
2020-09-06 02:00:00 22.4 12 Noroeste 26 Noroeste 0 -- -- 75
2020-09-06 01:00:00 22.4 14 Noroeste 27 Noroeste 0 -- -- 76
2020-09-06 00:00:00 22.5 17 Noroeste 24 Noroeste 0 -- -- 76
2020-09-05 23:00:00 22.7 14 Noroeste 31 Noroeste 0 -- -- 77
2020-09-05 22:00:00 22.9 16 Noroeste 39 Noroeste 0 -- -- 75
2020-09-05 21:00:00 22.8 21 Noroeste 32 Noroeste 0 -- -- 74
2020-09-05 20:00:00 23.1 16 Noroeste 38 Noroeste 0 -- -- 73
2020-09-05 19:00:00 23.3 26 Noroeste 40 Noroeste 0 -- -- 72
2020-09-05 18:00:00 23.6 22 Noroeste 47 Noroeste 0 -- -- 67
2020-09-05 17:00:00 23.4 28 Noroeste 46 Noroeste 0 -- -- 68
2020-09-05 16:00:00 24.7 28 Noroeste 51 Oeste 0 -- -- 66
2020-09-05 15:00:00 24.5 30 Noroeste 42 Noroeste 0 -- -- 66
2020-09-05 14:00:00 24.2 18 Noroeste 30 Norte 0 -- -- 63
2020-09-05 13:00:00 24.7 11 Nordeste 22 Nordeste 0 -- -- 66
2020-09-05 12:00:00 25 13 Nordeste 19 Nordeste 0 -- -- 64
2020-09-05 11:00:00 25 8 Nordeste 17 Nordeste 0 -- -- 66
2020-09-05 10:00:00 23.6 10 Noroeste 25 Norte 0 -- -- 70
2020-09-05 09:00:00 22.8 20 Noroeste 33 Noroeste 0 -- -- 72
2020-09-05 08:00:00 22.6 13 Noroeste 25 Noroeste 0 -- -- 72
2020-09-05 07:00:00 22.5 15 Noroeste 24 Norte 0 -- -- 73
2020-09-05 06:00:00 22.5 9 Noroeste 23 Norte 0 -- -- 73
2020-09-05 05:00:00 22.5 13 Noroeste 28 Noroeste 0 -- -- 73
2020-09-05 04:00:00 22.4 16 Noroeste 30 Noroeste 0 -- -- 74
2020-09-05 03:00:00 22.4 18 Noroeste 30 Noroeste 0 -- -- 75
2020-09-05 02:00:00 22.2 18 Noroeste 31 Noroeste 0 -- -- 76
2020-09-05 01:00:00 22.4 15 Noroeste 32 Noroeste 0 -- -- 76
2020-09-05 00:00:00 22.6 16 Noroeste 35 Noroeste 0 -- -- 78
2020-09-04 23:00:00 22.4 14 Noroeste 33 Noroeste 0 -- -- 78
2020-09-04 22:00:00 22.3 16 Noroeste 31 Noroeste 0 -- -- 77
2020-09-04 21:00:00 22.6 10 Noroeste 23 Noroeste 0 -- -- 74
2020-09-04 20:00:00 23.3 12 Noroeste 21 Nordeste 0 -- -- 72
2020-09-04 19:00:00 23.4 11 Norte 23 Nordeste 0 -- -- 69
2020-09-04 18:00:00 24 10 Norte 28 Norte 0 -- -- 68
2020-09-04 17:00:00 24 14 Norte 28 Norte 0 -- -- 67
2020-09-04 16:00:00 23.8 16 Norte 28 Nordeste 0 -- -- 68
2020-09-04 15:00:00 24.9 14 Norte 29 Nordeste 0 -- -- 64
2020-09-04 14:00:00 25.6 11 Nordeste 33 Noroeste 0 -- -- 62
2020-09-04 13:00:00 24.4 14 Noroeste 30 Noroeste 0 -- -- 62
2020-09-04 12:00:00 23.6 18 Noroeste 29 Noroeste 0 -- -- 66
2020-09-04 11:00:00 23.4 17 Noroeste 31 Noroeste 0 -- -- 67
2020-09-04 10:00:00 23 13 Noroeste 27 Noroeste 0 -- -- 67
2020-09-04 09:00:00 22.5 14 Noroeste 26 Noroeste 0 -- -- 69
2020-09-04 08:00:00 22.2 14 Noroeste 24 Noroeste 0 -- -- 72
2020-09-04 07:00:00 21.9 13 Norte 21 Noroeste 0 -- -- 72
2020-09-04 06:00:00 22 12 Norte 24 Norte 0 -- -- 73
2020-09-04 05:00:00 22 12 Noroeste 27 Noroeste 0 -- -- 74
2020-09-04 04:00:00 21.8 16 Noroeste 26 Oeste 0 -- -- 75
2020-09-04 03:00:00 21.8 17 Noroeste 26 Noroeste 0 -- -- 75
2020-09-04 02:00:00 21.9 14 Noroeste 33 Noroeste 0 -- -- 74
2020-09-04 01:00:00 22 17 Noroeste 25 Noroeste 0 -- -- 73
2020-09-04 00:00:00 22.2 11 Noroeste 20 Norte 0 -- -- 73
2020-09-03 23:00:00 22.7 10 Norte 23 Norte 0 -- -- 73
2020-09-03 22:00:00 22.3 13 Norte 22 Noroeste 0 -- -- 73
2020-09-03 21:00:00 22.6 10 Noroeste 26 Noroeste 0 -- -- 73
2020-09-03 20:00:00 24 12 Noroeste 25 Norte 0 -- -- 70
2020-09-03 19:00:00 23.6 13 Norte 27 Norte 0 -- -- 69
2020-09-03 18:00:00 23.9 13 Norte 23 Nordeste 0 -- -- 67
2020-09-03 17:00:00 25 9 Nordeste 24 Nordeste 0 -- -- 64
2020-09-03 16:00:00 25.1 10 Nordeste 23 Nordeste 0 -- -- 64
2020-09-03 15:00:00 26.2 10 Nordeste 26 Nordeste 0 -- -- 61
2020-09-03 14:00:00 23.8 12 Nordeste 26 Nordeste 0 -- -- 64
2020-09-03 13:00:00 24.5 12 Nordeste 26 Nordeste 0 -- -- 63
2020-09-03 12:00:00 24.6 12 Nordeste 20 Nordeste 0 -- -- 64
2020-09-03 11:00:00 25.3 4 Nordeste 22 Nordeste 0 -- -- 59
2020-09-03 10:00:00 23.4 8 Nordeste 18 Norte 0 -- -- 69
2020-09-03 09:00:00 22.5 8 Norte 14 Norte 0 -- -- 76
2020-09-03 08:00:00 21.8 6 Oeste 14 Noroeste 0 -- -- 75
2020-09-03 07:00:00 21.8 9 Noroeste 15 Norte 0 -- -- 75
2020-09-03 06:00:00 21.6 6 Norte 14 Noroeste 0 -- -- 75
2020-09-03 05:00:00 21.5 8 Noroeste 14 Noroeste 0 -- -- 79
2020-09-03 04:00:00 21.7 8 Noroeste 12 Oeste 0 -- -- 79
2020-09-03 03:00:00 21.6 8 Noroeste 14 Noroeste 0 -- -- 79
2020-09-03 02:00:00 21.5 8 Noroeste 17 Noroeste 0 -- -- 79
2020-09-03 01:00:00 21.9 6 Noroeste 13 Noroeste 0 -- -- 79
2020-09-03 00:00:00 22.2 4 Noroeste 17 Noroeste 0 -- -- 78
2020-09-02 23:00:00 22.1 10 Norte 15 Norte 0 -- -- 79
2020-09-02 22:00:00 22.3 10 Norte 14 Norte 0 -- -- 79
2020-09-02 21:00:00 23 6 Norte 15 Noroeste 0 -- -- 78
2020-09-02 20:00:00 23.3 8 Noroeste 21 Norte 0 -- -- 75
2020-09-02 19:00:00 24.9 5 Norte 23 Norte 0 -- -- 69
2020-09-02 18:00:00 25.3 7 Norte 24 Norte 0 -- -- 66
2020-09-02 17:00:00 25.1 10 Norte 25 Nordeste 0 -- -- 67
2020-09-02 16:00:00 24.6 12 Nordeste 23 Norte 0 -- -- 67
2020-09-02 15:00:00 25 12 Nordeste 30 Nordeste 0 -- -- 66
2020-09-02 14:00:00 24.3 14 Nordeste 25 Nordeste 0 -- -- 67
2020-09-02 13:00:00 23.8 14 Nordeste 29 Nordeste 0 -- -- 67
2020-09-02 12:00:00 25.4 9 Norte 22 Norte 0 -- -- 64
2020-09-02 11:00:00 24 12 Norte 21 Nordeste 0 -- -- 69
2020-09-02 10:00:00 23.5 13 Norte 22 Noroeste 0 -- -- 71
2020-09-02 09:00:00 22.6 8 Noroeste 22 Noroeste 0 -- -- 72
2020-09-02 08:00:00 21.9 9 Norte 19 Noroeste 0 -- -- 75
2020-09-02 07:00:00 22 10 Noroeste 18 Noroeste 0 -- -- 75
2020-09-02 06:00:00 21.9 9 Norte 18 Norte 0 -- -- 75
2020-09-02 05:00:00 22.2 9 Noroeste 18 Noroeste 0 -- -- 75
2020-09-02 04:00:00 22.3 6 Norte 14 Noroeste 0 -- -- 77
2020-09-02 03:00:00 22.3 9 Norte 15 Noroeste 0 -- -- 78
2020-09-02 02:00:00 22.3 8 Norte 17 Norte 0 -- -- 81
2020-09-02 01:00:00 22.5 10 Norte 23 Norte 0 -- -- 84
2020-09-02 00:00:00 22.8 18 Noroeste 30 Noroeste 0 -- -- 83
2020-09-01 23:00:00 22.9 15 Noroeste 30 Noroeste 0 -- -- 83
2020-09-01 22:00:00 23.3 18 Noroeste 30 Noroeste 0 -- -- 80
2020-09-01 21:00:00 23.1 17 Noroeste 30 Noroeste 0 -- -- 80
2020-09-01 20:00:00 23.1 18 Noroeste 34 Noroeste 0 -- -- 78
2020-09-01 19:00:00 23.5 17 Noroeste 36 Oeste 0 -- -- 77
2020-09-01 18:00:00 24.3 18 Noroeste 40 Noroeste 0 -- -- 74
2020-09-01 17:00:00 24.8 15 Noroeste 34 Noroeste 0 -- -- 69
2020-09-01 16:00:00 24.8 21 Noroeste 34 Noroeste 0 -- -- 66
2020-09-01 15:00:00 25.3 16 Noroeste 28 Noroeste 0 -- -- 63
2020-09-01 14:00:00 26.1 10 Norte 30 Nordeste 0 -- -- 67
2020-09-01 13:00:00 24.9 12 Nordeste 27 Nordeste 0 -- -- 72
2020-09-01 12:00:00 24.3 9 Norte 24 Nordeste 0 -- -- 74
2020-09-01 11:00:00 24.1 10 Nordeste 26 Nordeste 0 -- -- 72
2020-09-01 10:00:00 23.8 11 Norte 26 Norte 0 -- -- 75
2020-09-01 09:00:00 22.8 11 Norte 19 Norte 0 -- -- 80
2020-09-01 08:00:00 22.2 13 Norte 23 Noroeste 0 -- -- 83
2020-09-01 07:00:00 22.4 12 Noroeste 19 Noroeste 0 -- -- 83
2020-09-01 06:00:00 22.5 8 Noroeste 21 Noroeste 0 -- -- 81
2020-09-01 05:00:00 22.5 13 Noroeste 21 Noroeste 0 -- -- 81
2020-09-01 04:00:00 22.4 11 Noroeste 25 Noroeste 0 -- -- 81
2020-09-01 03:00:00 22.5 14 Noroeste 28 Noroeste 0 -- -- 81
2020-09-01 02:00:00 22.5 13 Noroeste 25 Noroeste 0 -- -- 80
2020-09-01 01:00:00 22.6 15 Noroeste 31 Noroeste 0 -- -- 79
2020-09-01 00:00:00 22.6 14 Noroeste 28 Noroeste 0 -- -- 78
2020-08-31 23:00:00 22.5 15 Noroeste 37 Norte 0 -- -- 76
2020-08-31 22:00:00 22.5 17 Noroeste 33 Noroeste 0 -- -- 75
2020-08-31 21:00:00 22.2 21 Noroeste 36 Noroeste 0 -- -- 75
2020-08-31 20:00:00 22.4 24 Noroeste 37 Noroeste 0 -- -- 73
2020-08-31 19:00:00 23.2 21 Noroeste 39 Noroeste 0 -- -- 69
2020-08-31 18:00:00 22.9 21 Noroeste 41 Noroeste 0 -- -- 67
2020-08-31 17:00:00 23.4 21 Noroeste 43 Noroeste 0 -- -- 65
2020-08-31 16:00:00 22.3 27 Norte 46 Noroeste 0 -- -- 66
2020-08-31 15:00:00 23.9 24 Noroeste 47 Noroeste 0 -- -- 64
2020-08-31 14:00:00 22.9 26 Noroeste 44 Noroeste 0 -- -- 64
2020-08-31 13:00:00 23.9 18 Noroeste 35 Norte 0 -- -- 63
2020-08-31 12:00:00 22.3 18 Noroeste 34 Noroeste 0 -- -- 67
2020-08-31 11:00:00 24.3 14 Norte 37 Norte 0 -- -- 64
2020-08-31 10:00:00 22.4 20 Norte 35 Norte 0 -- -- 68
2020-08-31 09:00:00 21.9 15 Noroeste 32 Noroeste 0 -- -- 69
2020-08-31 08:00:00 21.5 19 Noroeste 34 Noroeste 0 -- -- 73
2020-08-31 07:00:00 21.4 20 Noroeste 36 Noroeste 0 -- -- 72
2020-08-31 06:00:00 21.5 22 Noroeste 36 Noroeste 0 -- -- 70
2020-08-31 05:00:00 21.5 16 Noroeste 35 Noroeste 0 -- -- 69
2020-08-31 04:00:00 21.7 16 Noroeste 41 Noroeste 0 -- -- 69
2020-08-31 03:00:00 21.7 16 Noroeste 28 Noroeste 0 -- -- 69
2020-08-31 02:00:00 21.8 16 Noroeste 32 Noroeste 0 -- -- 68
2020-08-31 01:00:00 21.9 20 Noroeste 29 Noroeste 0 -- -- 66
2020-08-31 00:00:00 22 17 Noroeste 30 Noroeste 0 -- -- 65
2020-08-30 23:00:00 22.1 18 Noroeste 35 Noroeste 0 -- -- 64
2020-08-30 22:00:00 22.2 21 Noroeste 37 Norte 0 -- -- 64
2020-08-30 21:00:00 23.4 21 Noroeste 38 Noroeste 0 -- -- 60
2020-08-30 20:00:00 22.6 19 Noroeste 42 Noroeste 0 -- -- 62
2020-08-30 19:00:00 22.7 25 Norte 42 Norte 0 -- -- 59
2020-08-30 18:00:00 23 29 Noroeste 42 Noroeste 0 -- -- 61
2020-08-30 17:00:00 22.6 22 Norte 40 Norte 0 -- -- 61
2020-08-30 16:00:00 23 21 Norte 37 Nordeste 0 -- -- 58
2020-08-30 15:00:00 23.1 19 Norte 37 Nordeste 0 -- -- 61
2020-08-30 14:00:00 23.2 18 Norte 41 Norte 0 -- -- 61
2020-08-30 13:00:00 23.1 25 Norte 42 Norte 0 -- -- 59
2020-08-30 12:00:00 24.5 23 Norte 40 Noroeste 0 -- -- 57
2020-08-30 11:00:00 21.7 20 Noroeste 40 Noroeste 0 -- -- 70
2020-08-30 10:00:00 22.1 22 Noroeste 41 Noroeste 0 -- -- 64
2020-08-30 09:00:00 21.8 20 Noroeste 39 Norte 0 -- -- 63
2020-08-30 08:00:00 22 21 Norte 41 Noroeste 0 -- -- 61
2020-08-30 07:00:00 21 23 Norte 42 Norte 0 -- -- 72
2020-08-30 06:00:00 22.4 14 Noroeste 47 Noroeste 0 -- -- 59
2020-08-30 05:00:00 22.2 27 Norte 41 Norte 0 -- -- 63
2020-08-30 04:00:00 22 19 Noroeste 36 Noroeste 0 -- -- 68
2020-08-30 03:00:00 21.8 24 Noroeste 39 Noroeste 0 -- -- 66
2020-08-30 02:00:00 22.1 25 Norte 38 Norte 0 -- -- 67
2020-08-30 01:00:00 22.2 24 Noroeste 42 Noroeste 0 -- -- 68
2020-08-30 00:00:00 22.3 20 Noroeste 39 Noroeste 0 -- -- 67
2020-08-29 23:00:00 23.2 19 Noroeste 44 Noroeste 0 -- -- 68
2020-08-29 22:00:00 22.5 24 Norte 43 Noroeste 0 -- -- 69
2020-08-29 21:00:00 22.6 21 Noroeste 39 Noroeste 0 -- -- 70
2020-08-29 20:00:00 22.3 23 Norte 44 Norte 0 -- -- 70
2020-08-29 19:00:00 22.7 24 Norte 44 Norte 0 -- -- 72
2020-08-29 18:00:00 22.9 28 Norte 42 Norte 0 -- -- 78
2020-08-29 17:00:00 23.7 22 Norte 46 Noroeste 0 -- -- 74
2020-08-29 16:00:00 23.9 23 Noroeste 39 Noroeste 0 -- -- 73
2020-08-29 15:00:00 24 24 Noroeste 39 Noroeste 0 -- -- 69
2020-08-29 14:00:00 24.5 17 Noroeste 40 Noroeste 0 -- -- 63
2020-08-29 13:00:00 24.6 19 Noroeste 42 Oeste 0 -- -- 62
2020-08-29 12:00:00 23.9 21 Noroeste 37 Noroeste 0 -- -- 64
2020-08-29 11:00:00 23.6 23 Noroeste 39 Noroeste 0 -- -- 66
2020-08-29 10:00:00 23 19 Noroeste 36 Noroeste 0 -- -- 64
2020-08-29 09:00:00 22.7 21 Noroeste 37 Noroeste 0 -- -- 64
2020-08-29 08:00:00 22.5 16 Noroeste 36 Norte 0 -- -- 68
2020-08-29 07:00:00 22.5 19 Noroeste 33 Noroeste 0 -- -- 68
2020-08-29 06:00:00 22.5 17 Noroeste 31 Noroeste 0 -- -- 70
2020-08-29 05:00:00 22.4 20 Noroeste 35 Noroeste 0 -- -- 72
2020-08-29 04:00:00 22.3 21 Noroeste 36 Noroeste 0 -- -- 73
2020-08-29 03:00:00 22.3 15 Noroeste 28 Noroeste 0 -- -- 74
2020-08-29 02:00:00 22.5 18 Noroeste 32 Norte 0 -- -- 74
2020-08-29 01:00:00 22.5 22 Noroeste 38 Noroeste 0 -- -- 77
2020-08-29 00:00:00 23.2 17 Noroeste 36 Noroeste 0 -- -- 76
2020-08-28 23:00:00 22.6 23 Noroeste 44 Noroeste 0 -- -- 79
2020-08-28 22:00:00 22.6 23 Noroeste 39 Noroeste 0 -- -- 80
2020-08-28 21:00:00 23 21 Noroeste 41 Noroeste 0 -- -- 79
2020-08-28 20:00:00 22.9 26 Noroeste 40 Noroeste 0 -- -- 78
2020-08-28 19:00:00 23.4 27 Noroeste 46 Noroeste 0 -- -- 77
2020-08-28 18:00:00 24 28 Noroeste 46 Noroeste 0 -- -- 77
2020-08-28 17:00:00 25.3 27 Noroeste 43 Noroeste 0 -- -- 72
2020-08-28 16:00:00 24.5 27 Noroeste 48 Noroeste 0 -- -- 73
2020-08-28 15:00:00 25 28 Noroeste 46 Noroeste 0 -- -- 69
2020-08-28 14:00:00 25.4 24 Noroeste 40 Noroeste 0 -- -- 64
2020-08-28 13:00:00 27.1 17 Noroeste 33 Oeste 0 -- -- 57
2020-08-28 12:00:00 26.1 18 Noroeste 36 Oeste 0 -- -- 59
2020-08-28 11:00:00 25.7 23 Noroeste 43 Noroeste 0 -- -- 67
2020-08-28 10:00:00 25 24 Noroeste 45 Oeste 0 -- -- 72
2020-08-28 09:00:00 24.5 19 Noroeste 47 Noroeste 0 -- -- 73
2020-08-28 08:00:00 25.2 19 Noroeste 40 Noroeste 0 -- -- 62
2020-08-28 07:00:00 26.7 23 Noroeste 47 Noroeste 0 -- -- 52
2020-08-28 06:00:00 26.6 23 Noroeste 45 Noroeste 0 -- -- 52
2020-08-28 05:00:00 26 24 Noroeste 42 Noroeste 0 -- -- 56
2020-08-28 04:00:00 26.1 26 Noroeste 40 Noroeste 0 -- -- 56
2020-08-28 03:00:00 26.7 18 Noroeste 42 Noroeste 0 -- -- 52
2020-08-28 02:00:00 28.2 19 Noroeste 33 Noroeste 0 -- -- 45
2020-08-28 01:00:00 28.3 18 Noroeste 38 Noroeste 0 -- -- 44
2020-08-28 00:00:00 28.1 22 Noroeste 33 Oeste 0 -- -- 47